sensor_id;sensor_type;location;lat;lon;timestamp;P1;durP1;ratioP1;P2;durP2;ratioP2
76693;SDS011;69667;52.136;5.424;2023-05-31T00:00:22;7.35;;;2.80;;
76693;SDS011;69667;52.136;5.424;2023-05-31T00:02:48;9.23;;;3.00;;
76693;SDS011;69667;52.136;5.424;2023-05-31T00:05:15;7.13;;;2.80;;
76693;SDS011;69667;52.136;5.424;2023-05-31T00:07:42;5.38;;;2.83;;
76693;SDS011;69667;52.136;5.424;2023-05-31T00:10:08;6.97;;;2.53;;
76693;SDS011;69667;52.136;5.424;2023-05-31T00:12:35;7.38;;;2.50;;
76693;SDS011;69667;52.136;5.424;2023-05-31T00:15:02;7.10;;;2.88;;
76693;SDS011;69667;52.136;5.424;2023-05-31T00:17:28;5.22;;;3.13;;
76693;SDS011;69667;52.136;5.424;2023-05-31T00:20:15;6.97;;;3.05;;
76693;SDS011;69667;52.136;5.424;2023-05-31T00:22:42;6.68;;;2.92;;
76693;SDS011;69667;52.136;5.424;2023-05-31T00:25:08;7.03;;;2.55;;
76693;SDS011;69667;52.136;5.424;2023-05-31T00:27:35;7.45;;;2.88;;
76693;SDS011;69667;52.136;5.424;2023-05-31T00:30:01;5.20;;;2.72;;
76693;SDS011;69667;52.136;5.424;2023-05-31T00:32:28;6.68;;;3.30;;
76693;SDS011;69667;52.136;5.424;2023-05-31T00:34:56;6.00;;;3.20;;
76693;SDS011;69667;52.136;5.424;2023-05-31T00:37:22;7.45;;;2.88;;
76693;SDS011;69667;52.136;5.424;2023-05-31T00:39:49;6.30;;;2.75;;
76693;SDS011;69667;52.136;5.424;2023-05-31T00:42:15;5.03;;;2.65;;
76693;SDS011;69667;52.136;5.424;2023-05-31T00:44:42;7.40;;;3.08;;
76693;SDS011;69667;52.136;5.424;2023-05-31T00:47:09;5.72;;;2.72;;
76693;SDS011;69667;52.136;5.424;2023-05-31T00:49:35;5.03;;;2.75;;
76693;SDS011;69667;52.136;5.424;2023-05-31T00:52:02;5.50;;;2.97;;
76693;SDS011;69667;52.136;5.424;2023-05-31T00:54:30;5.07;;;2.88;;
76693;SDS011;69667;52.136;5.424;2023-05-31T00:56:57;5.25;;;2.63;;
76693;SDS011;69667;52.136;5.424;2023-05-31T00:59:23;7.95;;;2.97;;
76693;SDS011;69667;52.136;5.424;2023-05-31T01:01:51;6.57;;;2.90;;
76693;SDS011;69667;52.136;5.424;2023-05-31T01:04:21;7.43;;;3.90;;
76693;SDS011;69667;52.136;5.424;2023-05-31T01:06:49;7.45;;;3.05;;
76693;SDS011;69667;52.136;5.424;2023-05-31T01:09:20;5.68;;;2.65;;
76693;SDS011;69667;52.136;5.424;2023-05-31T01:11:58;7.18;;;2.78;;
76693;SDS011;69667;52.136;5.424;2023-05-31T01:17:30;7.07;;;2.90;;
76693;SDS011;69667;52.136;5.424;2023-05-31T01:20:11;5.05;;;2.63;;
76693;SDS011;69667;52.136;5.424;2023-05-31T01:26:05;6.75;;;2.80;;
76693;SDS011;69667;52.136;5.424;2023-05-31T01:28:57;5.88;;;2.80;;
76693;SDS011;69667;52.136;5.424;2023-05-31T01:31:26;5.90;;;2.78;;
76693;SDS011;69667;52.136;5.424;2023-05-31T01:33:55;7.50;;;2.90;;
76693;SDS011;69667;52.136;5.424;2023-05-31T01:36:22;6.47;;;2.90;;
76693;SDS011;69667;52.136;5.424;2023-05-31T01:38:49;6.97;;;2.75;;
76693;SDS011;69667;52.136;5.424;2023-05-31T01:41:17;7.32;;;2.72;;
76693;SDS011;69667;52.136;5.424;2023-05-31T01:43:47;7.05;;;3.05;;
76693;SDS011;69667;52.136;5.424;2023-05-31T01:46:16;6.45;;;2.75;;
76693;SDS011;69667;52.136;5.424;2023-05-31T01:48:46;4.88;;;2.72;;
76693;SDS011;69667;52.136;5.424;2023-05-31T01:51:15;4.82;;;2.65;;
76693;SDS011;69667;52.136;5.424;2023-05-31T01:53:43;6.40;;;3.15;;
76693;SDS011;69667;52.136;5.424;2023-05-31T01:56:09;6.00;;;3.03;;
76693;SDS011;69667;52.136;5.424;2023-05-31T01:58:39;7.30;;;2.78;;
76693;SDS011;69667;52.136;5.424;2023-05-31T02:01:15;7.65;;;3.38;;
76693;SDS011;69667;52.136;5.424;2023-05-31T02:03:44;8.30;;;3.03;;
76693;SDS011;69667;52.136;5.424;2023-05-31T02:06:11;7.85;;;3.08;;
76693;SDS011;69667;52.136;5.424;2023-05-31T02:08:41;7.55;;;3.03;;
76693;SDS011;69667;52.136;5.424;2023-05-31T02:11:08;6.47;;;3.20;;
76693;SDS011;69667;52.136;5.424;2023-05-31T02:13:35;7.13;;;2.95;;
76693;SDS011;69667;52.136;5.424;2023-05-31T02:16:02;8.30;;;3.50;;
76693;SDS011;69667;52.136;5.424;2023-05-31T02:18:32;7.03;;;3.20;;
76693;SDS011;69667;52.136;5.424;2023-05-31T02:20:59;6.70;;;2.92;;
76693;SDS011;69667;52.136;5.424;2023-05-31T02:23:25;7.95;;;2.85;;
76693;SDS011;69667;52.136;5.424;2023-05-31T02:25:52;5.30;;;2.80;;
76693;SDS011;69667;52.136;5.424;2023-05-31T02:28:19;5.85;;;2.83;;
76693;SDS011;69667;52.136;5.424;2023-05-31T02:30:53;8.32;;;3.78;;
76693;SDS011;69667;52.136;5.424;2023-05-31T02:33:23;5.60;;;2.67;;
76693;SDS011;69667;52.136;5.424;2023-05-31T02:35:50;6.70;;;3.08;;
76693;SDS011;69667;52.136;5.424;2023-05-31T02:38:21;7.18;;;2.42;;
76693;SDS011;69667;52.136;5.424;2023-05-31T02:40:47;6.88;;;3.10;;
76693;SDS011;69667;52.136;5.424;2023-05-31T02:43:14;6.95;;;2.80;;
76693;SDS011;69667;52.136;5.424;2023-05-31T02:45:41;7.03;;;2.90;;
76693;SDS011;69667;52.136;5.424;2023-05-31T02:48:08;5.70;;;3.20;;
76693;SDS011;69667;52.136;5.424;2023-05-31T02:50:35;9.07;;;3.58;;
76693;SDS011;69667;52.136;5.424;2023-05-31T02:53:05;7.30;;;2.95;;
76693;SDS011;69667;52.136;5.424;2023-05-31T02:55:52;7.32;;;3.42;;
76693;SDS011;69667;52.136;5.424;2023-05-31T02:58:19;6.63;;;3.10;;
76693;SDS011;69667;52.136;5.424;2023-05-31T03:01:05;6.18;;;2.53;;
76693;SDS011;69667;52.136;5.424;2023-05-31T03:03:38;7.18;;;3.00;;
76693;SDS011;69667;52.136;5.424;2023-05-31T03:06:17;6.15;;;3.40;;
76693;SDS011;69667;52.136;5.424;2023-05-31T03:08:45;5.82;;;3.00;;
76693;SDS011;69667;52.136;5.424;2023-05-31T03:11:12;6.10;;;3.03;;
76693;SDS011;69667;52.136;5.424;2023-05-31T03:13:39;8.18;;;3.47;;
76693;SDS011;69667;52.136;5.424;2023-05-31T03:16:05;6.30;;;3.25;;
76693;SDS011;69667;52.136;5.424;2023-05-31T03:18:32;7.95;;;3.63;;
76693;SDS011;69667;52.136;5.424;2023-05-31T03:20:59;9.10;;;3.30;;
76693;SDS011;69667;52.136;5.424;2023-05-31T03:23:26;7.53;;;3.03;;
76693;SDS011;69667;52.136;5.424;2023-05-31T03:25:53;6.07;;;2.83;;
76693;SDS011;69667;52.136;5.424;2023-05-31T03:28:20;7.95;;;3.13;;
76693;SDS011;69667;52.136;5.424;2023-05-31T03:30:46;10.35;;;3.45;;
76693;SDS011;69667;52.136;5.424;2023-05-31T03:33:13;6.75;;;3.78;;
76693;SDS011;69667;52.136;5.424;2023-05-31T03:35:40;5.18;;;2.60;;
76693;SDS011;69667;52.136;5.424;2023-05-31T03:38:07;9.25;;;3.13;;
76693;SDS011;69667;52.136;5.424;2023-05-31T03:40:34;8.20;;;3.28;;
76693;SDS011;69667;52.136;5.424;2023-05-31T03:43:00;6.25;;;3.30;;
76693;SDS011;69667;52.136;5.424;2023-05-31T03:45:27;7.55;;;3.67;;
76693;SDS011;69667;52.136;5.424;2023-05-31T03:47:54;7.28;;;3.40;;
76693;SDS011;69667;52.136;5.424;2023-05-31T03:50:21;6.93;;;3.45;;
76693;SDS011;69667;52.136;5.424;2023-05-31T03:52:48;9.38;;;3.50;;
76693;SDS011;69667;52.136;5.424;2023-05-31T03:55:14;9.38;;;3.50;;
76693;SDS011;69667;52.136;5.424;2023-05-31T03:57:41;6.88;;;3.53;;
76693;SDS011;69667;52.136;5.424;2023-05-31T04:00:08;7.88;;;3.45;;
76693;SDS011;69667;52.136;5.424;2023-05-31T04:02:45;9.90;;;4.00;;
76693;SDS011;69667;52.136;5.424;2023-05-31T04:05:30;9.02;;;3.58;;
76693;SDS011;69667;52.136;5.424;2023-05-31T04:07:57;8.55;;;3.75;;
76693;SDS011;69667;52.136;5.424;2023-05-31T04:10:25;10.10;;;4.20;;
76693;SDS011;69667;52.136;5.424;2023-05-31T04:12:52;9.13;;;3.20;;
76693;SDS011;69667;52.136;5.424;2023-05-31T04:15:19;8.13;;;3.50;;
76693;SDS011;69667;52.136;5.424;2023-05-31T04:17:45;8.20;;;3.53;;
76693;SDS011;69667;52.136;5.424;2023-05-31T04:20:12;9.95;;;3.83;;
76693;SDS011;69667;52.136;5.424;2023-05-31T04:22:39;8.13;;;3.25;;
76693;SDS011;69667;52.136;5.424;2023-05-31T04:25:06;6.40;;;3.65;;
76693;SDS011;69667;52.136;5.424;2023-05-31T04:27:38;10.07;;;3.35;;
76693;SDS011;69667;52.136;5.424;2023-05-31T04:35:01;6.88;;;3.03;;
76693;SDS011;69667;52.136;5.424;2023-05-31T04:37:32;9.02;;;3.67;;
76693;SDS011;69667;52.136;5.424;2023-05-31T04:40:04;8.45;;;4.00;;
76693;SDS011;69667;52.136;5.424;2023-05-31T04:42:31;9.00;;;3.78;;
76693;SDS011;69667;52.136;5.424;2023-05-31T04:44:58;7.88;;;3.47;;
76693;SDS011;69667;52.136;5.424;2023-05-31T04:47:32;8.68;;;3.92;;
76693;SDS011;69667;52.136;5.424;2023-05-31T04:49:59;11.73;;;4.30;;
76693;SDS011;69667;52.136;5.424;2023-05-31T04:52:26;9.95;;;4.00;;
76693;SDS011;69667;52.136;5.424;2023-05-31T04:54:59;10.85;;;3.78;;
76693;SDS011;69667;52.136;5.424;2023-05-31T04:57:27;9.45;;;4.45;;
76693;SDS011;69667;52.136;5.424;2023-05-31T04:59:58;10.43;;;4.07;;
76693;SDS011;69667;52.136;5.424;2023-05-31T05:02:25;8.63;;;4.35;;
76693;SDS011;69667;52.136;5.424;2023-05-31T05:04:53;9.52;;;4.10;;
76693;SDS011;69667;52.136;5.424;2023-05-31T05:07:20;7.82;;;4.10;;
76693;SDS011;69667;52.136;5.424;2023-05-31T05:09:50;11.32;;;4.28;;
76693;SDS011;69667;52.136;5.424;2023-05-31T05:12:16;10.63;;;4.00;;
76693;SDS011;69667;52.136;5.424;2023-05-31T05:14:45;9.25;;;3.53;;
76693;SDS011;69667;52.136;5.424;2023-05-31T05:17:13;8.13;;;3.63;;
76693;SDS011;69667;52.136;5.424;2023-05-31T05:19:40;9.50;;;4.40;;
76693;SDS011;69667;52.136;5.424;2023-05-31T05:22:09;10.32;;;3.65;;
76693;SDS011;69667;52.136;5.424;2023-05-31T05:24:37;11.77;;;4.18;;
76693;SDS011;69667;52.136;5.424;2023-05-31T05:27:04;9.30;;;4.10;;
76693;SDS011;69667;52.136;5.424;2023-05-31T05:29:31;8.98;;;4.25;;
76693;SDS011;69667;52.136;5.424;2023-05-31T05:31:58;8.70;;;4.15;;
76693;SDS011;69667;52.136;5.424;2023-05-31T05:34:24;10.15;;;4.05;;
76693;SDS011;69667;52.136;5.424;2023-05-31T05:36:51;12.25;;;4.57;;
76693;SDS011;69667;52.136;5.424;2023-05-31T05:39:21;8.70;;;4.13;;
76693;SDS011;69667;52.136;5.424;2023-05-31T05:41:51;8.43;;;4.40;;
76693;SDS011;69667;52.136;5.424;2023-05-31T05:44:17;9.32;;;4.13;;
76693;SDS011;69667;52.136;5.424;2023-05-31T05:46:46;8.02;;;3.97;;
76693;SDS011;69667;52.136;5.424;2023-05-31T05:49:13;9.05;;;4.10;;
76693;SDS011;69667;52.136;5.424;2023-05-31T05:51:42;12.85;;;4.88;;
76693;SDS011;69667;52.136;5.424;2023-05-31T05:54:08;8.48;;;4.53;;
76693;SDS011;69667;52.136;5.424;2023-05-31T05:56:37;8.27;;;4.28;;
76693;SDS011;69667;52.136;5.424;2023-05-31T05:59:05;9.18;;;4.53;;
76693;SDS011;69667;52.136;5.424;2023-05-31T06:01:51;10.60;;;4.88;;
76693;SDS011;69667;52.136;5.424;2023-05-31T06:04:21;11.02;;;5.18;;
76693;SDS011;69667;52.136;5.424;2023-05-31T06:06:49;9.02;;;4.65;;
76693;SDS011;69667;52.136;5.424;2023-05-31T06:09:15;10.43;;;5.28;;
76693;SDS011;69667;52.136;5.424;2023-05-31T06:11:42;11.15;;;4.93;;
76693;SDS011;69667;52.136;5.424;2023-05-31T06:14:09;9.23;;;4.97;;
76693;SDS011;69667;52.136;5.424;2023-05-31T06:16:40;9.68;;;4.60;;
76693;SDS011;69667;52.136;5.424;2023-05-31T06:19:07;8.98;;;4.80;;
76693;SDS011;69667;52.136;5.424;2023-05-31T06:21:34;10.60;;;4.97;;
76693;SDS011;69667;52.136;5.424;2023-05-31T06:24:01;8.23;;;4.97;;
76693;SDS011;69667;52.136;5.424;2023-05-31T06:26:30;9.80;;;4.75;;
76693;SDS011;69667;52.136;5.424;2023-05-31T06:28:57;9.82;;;4.68;;
76693;SDS011;69667;52.136;5.424;2023-05-31T06:31:55;15.32;;;5.80;;
76693;SDS011;69667;52.136;5.424;2023-05-31T06:34:24;9.73;;;4.65;;
76693;SDS011;69667;52.136;5.424;2023-05-31T06:36:52;7.68;;;5.00;;
76693;SDS011;69667;52.136;5.424;2023-05-31T06:39:19;8.70;;;5.10;;
76693;SDS011;69667;52.136;5.424;2023-05-31T06:41:45;10.52;;;5.18;;
76693;SDS011;69667;52.136;5.424;2023-05-31T06:44:35;10.45;;;5.20;;
76693;SDS011;69667;52.136;5.424;2023-05-31T06:47:26;9.27;;;5.05;;
76693;SDS011;69667;52.136;5.424;2023-05-31T06:50:25;11.10;;;5.55;;
76693;SDS011;69667;52.136;5.424;2023-05-31T06:53:26;9.20;;;4.72;;
76693;SDS011;69667;52.136;5.424;2023-05-31T06:56:16;9.40;;;4.70;;
76693;SDS011;69667;52.136;5.424;2023-05-31T06:58:43;8.25;;;4.90;;
76693;SDS011;69667;52.136;5.424;2023-05-31T07:01:12;8.02;;;4.68;;
76693;SDS011;69667;52.136;5.424;2023-05-31T07:03:39;7.88;;;4.93;;
76693;SDS011;69667;52.136;5.424;2023-05-31T07:06:06;7.50;;;4.60;;
76693;SDS011;69667;52.136;5.424;2023-05-31T07:08:36;8.00;;;4.65;;
76693;SDS011;69667;52.136;5.424;2023-05-31T07:11:55;8.50;;;4.90;;
76693;SDS011;69667;52.136;5.424;2023-05-31T07:14:23;10.35;;;5.10;;
76693;SDS011;69667;52.136;5.424;2023-05-31T07:16:51;8.95;;;4.93;;
76693;SDS011;69667;52.136;5.424;2023-05-31T07:19:17;8.23;;;5.18;;
76693;SDS011;69667;52.136;5.424;2023-05-31T07:21:44;8.27;;;4.85;;
76693;SDS011;69667;52.136;5.424;2023-05-31T07:24:10;9.05;;;4.90;;
76693;SDS011;69667;52.136;5.424;2023-05-31T07:26:37;11.20;;;5.13;;
76693;SDS011;69667;52.136;5.424;2023-05-31T07:29:04;7.38;;;4.72;;
76693;SDS011;69667;52.136;5.424;2023-05-31T07:31:30;9.40;;;4.78;;
76693;SDS011;69667;52.136;5.424;2023-05-31T07:33:57;8.30;;;4.93;;
76693;SDS011;69667;52.136;5.424;2023-05-31T07:36:24;6.22;;;4.25;;
76693;SDS011;69667;52.136;5.424;2023-05-31T07:38:51;8.75;;;4.70;;
76693;SDS011;69667;52.136;5.424;2023-05-31T07:41:21;8.55;;;5.00;;
76693;SDS011;69667;52.136;5.424;2023-05-31T07:43:47;7.75;;;4.63;;
76693;SDS011;69667;52.136;5.424;2023-05-31T07:46:14;6.70;;;4.50;;
76693;SDS011;69667;52.136;5.424;2023-05-31T07:48:40;6.80;;;4.40;;
76693;SDS011;69667;52.136;5.424;2023-05-31T07:51:07;7.38;;;4.80;;
76693;SDS011;69667;52.136;5.424;2023-05-31T07:53:34;9.60;;;4.78;;
76693;SDS011;69667;52.136;5.424;2023-05-31T07:56:00;7.50;;;4.13;;
76693;SDS011;69667;52.136;5.424;2023-05-31T07:58:27;8.10;;;4.50;;
76693;SDS011;69667;52.136;5.424;2023-05-31T08:03:22;6.88;;;3.78;;
76693;SDS011;69667;52.136;5.424;2023-05-31T08:05:48;8.43;;;4.50;;
76693;SDS011;69667;52.136;5.424;2023-05-31T08:08:15;7.30;;;4.45;;
76693;SDS011;69667;52.136;5.424;2023-05-31T08:10:42;7.80;;;4.22;;
76693;SDS011;69667;52.136;5.424;2023-05-31T08:13:10;6.60;;;4.10;;
76693;SDS011;69667;52.136;5.424;2023-05-31T08:16:24;7.82;;;4.30;;
76693;SDS011;69667;52.136;5.424;2023-05-31T08:18:53;6.63;;;4.35;;
76693;SDS011;69667;52.136;5.424;2023-05-31T08:21:19;7.68;;;4.28;;
76693;SDS011;69667;52.136;5.424;2023-05-31T08:23:46;5.43;;;3.92;;
76693;SDS011;69667;52.136;5.424;2023-05-31T08:26:12;10.75;;;6.00;;
76693;SDS011;69667;52.136;5.424;2023-05-31T08:28:39;9.40;;;5.25;;
76693;SDS011;69667;52.136;5.424;2023-05-31T08:33:34;8.65;;;5.20;;
76693;SDS011;69667;52.136;5.424;2023-05-31T08:36:00;7.40;;;4.80;;
76693;SDS011;69667;52.136;5.424;2023-05-31T08:38:30;8.27;;;4.82;;
76693;SDS011;69667;52.136;5.424;2023-05-31T08:40:57;8.57;;;5.03;;
76693;SDS011;69667;52.136;5.424;2023-05-31T08:43:27;8.90;;;5.93;;
76693;SDS011;69667;52.136;5.424;2023-05-31T08:45:54;11.13;;;4.80;;
76693;SDS011;69667;52.136;5.424;2023-05-31T08:48:26;9.95;;;5.38;;
76693;SDS011;69667;52.136;5.424;2023-05-31T08:50:56;9.13;;;5.80;;
76693;SDS011;69667;52.136;5.424;2023-05-31T08:53:24;8.23;;;5.00;;
76693;SDS011;69667;52.136;5.424;2023-05-31T08:55:54;9.02;;;5.13;;
76693;SDS011;69667;52.136;5.424;2023-05-31T08:58:21;9.93;;;5.10;;
76693;SDS011;69667;52.136;5.424;2023-05-31T09:00:48;9.50;;;5.03;;
76693;SDS011;69667;52.136;5.424;2023-05-31T09:03:15;10.13;;;5.07;;
76693;SDS011;69667;52.136;5.424;2023-05-31T09:05:42;8.82;;;5.22;;
76693;SDS011;69667;52.136;5.424;2023-05-31T09:08:09;8.55;;;4.95;;
76693;SDS011;69667;52.136;5.424;2023-05-31T09:13:05;7.57;;;5.32;;
76693;SDS011;69667;52.136;5.424;2023-05-31T09:15:35;9.98;;;4.82;;
76693;SDS011;69667;52.136;5.424;2023-05-31T09:18:12;9.50;;;4.80;;
76693;SDS011;69667;52.136;5.424;2023-05-31T09:20:43;15.55;;;5.68;;
76693;SDS011;69667;52.136;5.424;2023-05-31T09:23:13;8.70;;;4.63;;
76693;SDS011;69667;52.136;5.424;2023-05-31T09:25:47;9.80;;;4.82;;
76693;SDS011;69667;52.136;5.424;2023-05-31T09:28:19;10.70;;;6.00;;
76693;SDS011;69667;52.136;5.424;2023-05-31T09:31:03;12.07;;;4.78;;
76693;SDS011;69667;52.136;5.424;2023-05-31T09:33:36;7.68;;;5.50;;
76693;SDS011;69667;52.136;5.424;2023-05-31T09:36:14;11.07;;;5.70;;
76693;SDS011;69667;52.136;5.424;2023-05-31T09:38:50;9.50;;;5.18;;
76693;SDS011;69667;52.136;5.424;2023-05-31T09:41:23;10.23;;;6.15;;
76693;SDS011;69667;52.136;5.424;2023-05-31T09:43:52;9.02;;;5.90;;
76693;SDS011;69667;52.136;5.424;2023-05-31T09:46:22;13.68;;;5.45;;
76693;SDS011;69667;52.136;5.424;2023-05-31T09:49:05;11.35;;;5.93;;
76693;SDS011;69667;52.136;5.424;2023-05-31T09:51:33;7.53;;;5.15;;
76693;SDS011;69667;52.136;5.424;2023-05-31T09:54:00;8.32;;;5.65;;
76693;SDS011;69667;52.136;5.424;2023-05-31T09:56:35;11.65;;;6.25;;
76693;SDS011;69667;52.136;5.424;2023-05-31T09:59:03;12.18;;;5.07;;
76693;SDS011;69667;52.136;5.424;2023-05-31T10:01:32;10.27;;;5.55;;
76693;SDS011;69667;52.136;5.424;2023-05-31T10:06:27;10.55;;;5.80;;
76693;SDS011;69667;52.136;5.424;2023-05-31T10:08:53;9.48;;;5.60;;
76693;SDS011;69667;52.136;5.424;2023-05-31T10:11:28;9.57;;;5.85;;
76693;SDS011;69667;52.136;5.424;2023-05-31T10:14:07;9.45;;;5.75;;
76693;SDS011;69667;52.136;5.424;2023-05-31T10:16:48;8.18;;;5.50;;
76693;SDS011;69667;52.136;5.424;2023-05-31T10:19:18;12.95;;;5.10;;
76693;SDS011;69667;52.136;5.424;2023-05-31T10:21:50;8.50;;;4.88;;
76693;SDS011;69667;52.136;5.424;2023-05-31T10:24:23;15.60;;;5.70;;
76693;SDS011;69667;52.136;5.424;2023-05-31T10:32:10;8.38;;;4.85;;
76693;SDS011;69667;52.136;5.424;2023-05-31T10:34:43;8.75;;;5.72;;
76693;SDS011;69667;52.136;5.424;2023-05-31T10:37:09;10.02;;;5.47;;
76693;SDS011;69667;52.136;5.424;2023-05-31T10:45:12;10.02;;;5.95;;
76693;SDS011;69667;52.136;5.424;2023-05-31T10:47:49;8.60;;;4.78;;
76693;SDS011;69667;52.136;5.424;2023-05-31T10:50:22;10.65;;;5.22;;
76693;SDS011;69667;52.136;5.424;2023-05-31T10:52:52;8.32;;;5.15;;
76693;SDS011;69667;52.136;5.424;2023-05-31T10:55:40;7.78;;;4.68;;
76693;SDS011;69667;52.136;5.424;2023-05-31T10:58:23;9.13;;;5.32;;
76693;SDS011;69667;52.136;5.424;2023-05-31T11:01:10;11.73;;;5.13;;
76693;SDS011;69667;52.136;5.424;2023-05-31T11:03:44;8.65;;;5.07;;
76693;SDS011;69667;52.136;5.424;2023-05-31T11:06:13;7.40;;;4.40;;
76693;SDS011;69667;52.136;5.424;2023-05-31T11:08:57;9.05;;;4.30;;
76693;SDS011;69667;52.136;5.424;2023-05-31T11:11:25;6.28;;;4.40;;
76693;SDS011;69667;52.136;5.424;2023-05-31T11:19:30;7.55;;;4.47;;
76693;SDS011;69667;52.136;5.424;2023-05-31T11:21:59;7.57;;;4.82;;
76693;SDS011;69667;52.136;5.424;2023-05-31T11:27:23;7.97;;;3.97;;
76693;SDS011;69667;52.136;5.424;2023-05-31T11:30:00;9.23;;;4.53;;
76693;SDS011;69667;52.136;5.424;2023-05-31T11:35:03;7.75;;;3.35;;
76693;SDS011;69667;52.136;5.424;2023-05-31T11:37:33;11.05;;;4.55;;
76693;SDS011;69667;52.136;5.424;2023-05-31T11:40:03;8.13;;;4.40;;
76693;SDS011;69667;52.136;5.424;2023-05-31T11:42:35;8.48;;;3.53;;
76693;SDS011;69667;52.136;5.424;2023-05-31T11:45:06;7.72;;;3.55;;
76693;SDS011;69667;52.136;5.424;2023-05-31T11:47:50;8.50;;;4.53;;
76693;SDS011;69667;52.136;5.424;2023-05-31T11:50:18;5.25;;;3.50;;
76693;SDS011;69667;52.136;5.424;2023-05-31T11:52:45;10.40;;;4.35;;
76693;SDS011;69667;52.136;5.424;2023-05-31T11:55:14;5.95;;;3.63;;
76693;SDS011;69667;52.136;5.424;2023-05-31T11:57:52;6.50;;;3.63;;
76693;SDS011;69667;52.136;5.424;2023-05-31T12:00:20;9.98;;;3.90;;
76693;SDS011;69667;52.136;5.424;2023-05-31T12:02:51;10.32;;;3.38;;
76693;SDS011;69667;52.136;5.424;2023-05-31T12:05:20;10.63;;;3.95;;
76693;SDS011;69667;52.136;5.424;2023-05-31T12:07:51;7.90;;;3.83;;
76693;SDS011;69667;52.136;5.424;2023-05-31T12:10:19;6.15;;;3.42;;
76693;SDS011;69667;52.136;5.424;2023-05-31T12:12:46;8.70;;;3.55;;
76693;SDS011;69667;52.136;5.424;2023-05-31T12:15:14;7.45;;;3.58;;
76693;SDS011;69667;52.136;5.424;2023-05-31T12:17:42;8.02;;;2.90;;
76693;SDS011;69667;52.136;5.424;2023-05-31T12:20:09;7.50;;;3.10;;
76693;SDS011;69667;52.136;5.424;2023-05-31T12:22:39;6.30;;;2.60;;
76693;SDS011;69667;52.136;5.424;2023-05-31T12:25:06;5.43;;;2.53;;
76693;SDS011;69667;52.136;5.424;2023-05-31T12:27:33;5.65;;;3.40;;
76693;SDS011;69667;52.136;5.424;2023-05-31T12:30:17;9.77;;;3.47;;
76693;SDS011;69667;52.136;5.424;2023-05-31T12:32:45;7.35;;;3.13;;
76693;SDS011;69667;52.136;5.424;2023-05-31T12:35:12;8.73;;;3.10;;
76693;SDS011;69667;52.136;5.424;2023-05-31T12:37:40;8.23;;;3.13;;
76693;SDS011;69667;52.136;5.424;2023-05-31T12:40:10;8.20;;;3.40;;
76693;SDS011;69667;52.136;5.424;2023-05-31T12:42:38;6.18;;;2.67;;
76693;SDS011;69667;52.136;5.424;2023-05-31T12:45:06;6.22;;;2.70;;
76693;SDS011;69667;52.136;5.424;2023-05-31T12:47:34;6.72;;;2.65;;
76693;SDS011;69667;52.136;5.424;2023-05-31T12:52:33;7.05;;;2.67;;
76693;SDS011;69667;52.136;5.424;2023-05-31T12:55:01;8.82;;;3.40;;
76693;SDS011;69667;52.136;5.424;2023-05-31T12:57:28;7.70;;;2.47;;
76693;SDS011;69667;52.136;5.424;2023-05-31T13:00:03;10.68;;;2.90;;
76693;SDS011;69667;52.136;5.424;2023-05-31T13:02:36;7.07;;;2.78;;
76693;SDS011;69667;52.136;5.424;2023-05-31T13:05:04;8.43;;;3.03;;
76693;SDS011;69667;52.136;5.424;2023-05-31T13:07:31;8.18;;;2.65;;
76693;SDS011;69667;52.136;5.424;2023-05-31T13:09:58;7.22;;;3.10;;
76693;SDS011;69667;52.136;5.424;2023-05-31T13:12:25;8.20;;;3.05;;
76693;SDS011;69667;52.136;5.424;2023-05-31T13:14:52;7.20;;;2.85;;
76693;SDS011;69667;52.136;5.424;2023-05-31T13:17:19;5.88;;;2.60;;
76693;SDS011;69667;52.136;5.424;2023-05-31T13:19:46;8.38;;;2.90;;
76693;SDS011;69667;52.136;5.424;2023-05-31T13:22:33;6.85;;;2.78;;
76693;SDS011;69667;52.136;5.424;2023-05-31T13:24:59;6.38;;;2.70;;
76693;SDS011;69667;52.136;5.424;2023-05-31T13:27:26;6.40;;;2.22;;
76693;SDS011;69667;52.136;5.424;2023-05-31T13:29:52;6.50;;;2.45;;
76693;SDS011;69667;52.136;5.424;2023-05-31T13:32:19;5.68;;;2.15;;
76693;SDS011;69667;52.136;5.424;2023-05-31T13:34:45;6.97;;;2.58;;
76693;SDS011;69667;52.136;5.424;2023-05-31T13:37:12;5.90;;;2.60;;
76693;SDS011;69667;52.136;5.424;2023-05-31T13:39:39;10.27;;;2.55;;
76693;SDS011;69667;52.136;5.424;2023-05-31T13:42:06;6.25;;;2.53;;
76693;SDS011;69667;52.136;5.424;2023-05-31T13:44:33;6.22;;;2.35;;
76693;SDS011;69667;52.136;5.424;2023-05-31T13:46:59;3.95;;;2.35;;
76693;SDS011;69667;52.136;5.424;2023-05-31T13:49:26;7.28;;;2.35;;
76693;SDS011;69667;52.136;5.424;2023-05-31T13:51:53;6.47;;;2.88;;
76693;SDS011;69667;52.136;5.424;2023-05-31T13:54:19;6.70;;;3.33;;
76693;SDS011;69667;52.136;5.424;2023-05-31T13:56:46;15.75;;;3.25;;
76693;SDS011;69667;52.136;5.424;2023-05-31T13:59:13;6.60;;;2.55;;
76693;SDS011;69667;52.136;5.424;2023-05-31T14:01:41;5.40;;;2.67;;
76693;SDS011;69667;52.136;5.424;2023-05-31T14:04:09;7.45;;;2.38;;
76693;SDS011;69667;52.136;5.424;2023-05-31T14:06:35;7.53;;;2.42;;
76693;SDS011;69667;52.136;5.424;2023-05-31T14:09:03;6.70;;;2.30;;
76693;SDS011;69667;52.136;5.424;2023-05-31T14:11:29;5.85;;;2.42;;
76693;SDS011;69667;52.136;5.424;2023-05-31T14:13:56;5.90;;;2.30;;
76693;SDS011;69667;52.136;5.424;2023-05-31T14:16:22;9.75;;;3.10;;
76693;SDS011;69667;52.136;5.424;2023-05-31T14:18:49;9.43;;;3.85;;
76693;SDS011;69667;52.136;5.424;2023-05-31T14:21:20;6.13;;;3.38;;
76693;SDS011;69667;52.136;5.424;2023-05-31T14:23:46;8.77;;;3.88;;
76693;SDS011;69667;52.136;5.424;2023-05-31T14:26:13;10.07;;;4.07;;
76693;SDS011;69667;52.136;5.424;2023-05-31T14:28:39;8.50;;;4.13;;
76693;SDS011;69667;52.136;5.424;2023-05-31T14:31:06;10.07;;;4.03;;
76693;SDS011;69667;52.136;5.424;2023-05-31T14:33:32;10.50;;;4.30;;
76693;SDS011;69667;52.136;5.424;2023-05-31T14:36:00;9.80;;;4.38;;
76693;SDS011;69667;52.136;5.424;2023-05-31T14:38:27;11.05;;;4.15;;
76693;SDS011;69667;52.136;5.424;2023-05-31T14:41:00;9.82;;;4.10;;
76693;SDS011;69667;52.136;5.424;2023-05-31T14:43:27;11.40;;;4.35;;
76693;SDS011;69667;52.136;5.424;2023-05-31T14:45:54;9.48;;;3.72;;
76693;SDS011;69667;52.136;5.424;2023-05-31T14:48:21;6.93;;;4.15;;
76693;SDS011;69667;52.136;5.424;2023-05-31T14:50:47;9.23;;;3.72;;
76693;SDS011;69667;52.136;5.424;2023-05-31T14:53:14;8.93;;;4.05;;
76693;SDS011;69667;52.136;5.424;2023-05-31T14:55:41;10.18;;;4.20;;
76693;SDS011;69667;52.136;5.424;2023-05-31T14:58:07;10.73;;;4.28;;
76693;SDS011;69667;52.136;5.424;2023-05-31T15:00:34;9.82;;;4.13;;
76693;SDS011;69667;52.136;5.424;2023-05-31T15:03:01;12.65;;;4.22;;
76693;SDS011;69667;52.136;5.424;2023-05-31T15:05:28;11.45;;;4.43;;
76693;SDS011;69667;52.136;5.424;2023-05-31T15:07:55;7.45;;;4.20;;
76693;SDS011;69667;52.136;5.424;2023-05-31T15:10:21;9.38;;;4.35;;
76693;SDS011;69667;52.136;5.424;2023-05-31T15:12:48;6.53;;;3.88;;
76693;SDS011;69667;52.136;5.424;2023-05-31T15:15:14;14.00;;;5.05;;
76693;SDS011;69667;52.136;5.424;2023-05-31T15:17:41;11.45;;;4.75;;
76693;SDS011;69667;52.136;5.424;2023-05-31T15:20:08;12.98;;;5.18;;
76693;SDS011;69667;52.136;5.424;2023-05-31T15:22:35;8.30;;;4.28;;
76693;SDS011;69667;52.136;5.424;2023-05-31T15:25:05;9.65;;;4.22;;
76693;SDS011;69667;52.136;5.424;2023-05-31T15:34:07;9.45;;;4.18;;
76693;SDS011;69667;52.136;5.424;2023-05-31T15:36:33;9.70;;;4.15;;
76693;SDS011;69667;52.136;5.424;2023-05-31T15:39:00;8.57;;;4.20;;
76693;SDS011;69667;52.136;5.424;2023-05-31T15:43:55;7.80;;;3.25;;
76693;SDS011;69667;52.136;5.424;2023-05-31T15:46:23;9.55;;;3.38;;
76693;SDS011;69667;52.136;5.424;2023-05-31T15:48:52;8.00;;;3.60;;
76693;SDS011;69667;52.136;5.424;2023-05-31T15:51:18;8.00;;;3.58;;
76693;SDS011;69667;52.136;5.424;2023-05-31T15:53:45;13.80;;;3.67;;